sensor_id;sensor_type;location;lat;lon;timestamp;P1;durP1;ratioP1;P2;durP2;ratioP2
37715;SDS011;23562;50.540;12.504;2024-03-02T00:02:17;52.90;;;24.60;;
37715;SDS011;23562;50.540;12.504;2024-03-02T00:04:44;52.63;;;25.45;;
37715;SDS011;23562;50.540;12.504;2024-03-02T00:07:09;51.72;;;24.98;;
37715;SDS011;23562;50.540;12.504;2024-03-02T00:09:34;51.83;;;25.03;;
37715;SDS011;23562;50.540;12.504;2024-03-02T00:12:00;50.80;;;24.30;;
37715;SDS011;23562;50.540;12.504;2024-03-02T00:14:25;52.37;;;24.93;;
37715;SDS011;23562;50.540;12.504;2024-03-02T00:16:50;55.60;;;24.13;;
37715;SDS011;23562;50.540;12.504;2024-03-02T00:19:16;54.83;;;25.23;;
37715;SDS011;23562;50.540;12.504;2024-03-02T00:21:41;60.35;;;24.95;;
37715;SDS011;23562;50.540;12.504;2024-03-02T00:24:18;52.60;;;23.52;;
37715;SDS011;23562;50.540;12.504;2024-03-02T00:26:45;53.30;;;24.67;;
37715;SDS011;23562;50.540;12.504;2024-03-02T00:29:11;52.20;;;22.73;;
37715;SDS011;23562;50.540;12.504;2024-03-02T00:31:38;57.83;;;24.15;;
37715;SDS011;23562;50.540;12.504;2024-03-02T00:34:04;53.10;;;23.98;;
37715;SDS011;23562;50.540;12.504;2024-03-02T00:36:30;52.88;;;23.20;;
37715;SDS011;23562;50.540;12.504;2024-03-02T00:38:55;51.20;;;22.75;;
37715;SDS011;23562;50.540;12.504;2024-03-02T00:43:48;57.17;;;23.10;;
37715;SDS011;23562;50.540;12.504;2024-03-02T00:46:15;50.53;;;22.33;;
37715;SDS011;23562;50.540;12.504;2024-03-02T00:48:44;57.53;;;24.52;;
37715;SDS011;23562;50.540;12.504;2024-03-02T00:51:11;52.17;;;24.10;;
37715;SDS011;23562;50.540;12.504;2024-03-02T00:53:36;61.25;;;24.77;;
37715;SDS011;23562;50.540;12.504;2024-03-02T00:56:02;56.22;;;24.23;;
37715;SDS011;23562;50.540;12.504;2024-03-02T00:58:27;52.00;;;23.75;;
37715;SDS011;23562;50.540;12.504;2024-03-02T01:00:52;55.23;;;23.70;;
37715;SDS011;23562;50.540;12.504;2024-03-02T01:03:17;52.47;;;22.20;;
37715;SDS011;23562;50.540;12.504;2024-03-02T01:05:44;56.70;;;22.67;;
37715;SDS011;23562;50.540;12.504;2024-03-02T01:08:09;51.80;;;22.13;;
37715;SDS011;23562;50.540;12.504;2024-03-02T01:10:35;55.83;;;24.38;;
37715;SDS011;23562;50.540;12.504;2024-03-02T01:13:00;53.65;;;23.67;;
37715;SDS011;23562;50.540;12.504;2024-03-02T01:15:25;53.38;;;24.02;;
37715;SDS011;23562;50.540;12.504;2024-03-02T01:17:50;55.03;;;23.77;;
37715;SDS011;23562;50.540;12.504;2024-03-02T01:20:15;58.20;;;24.83;;
37715;SDS011;23562;50.540;12.504;2024-03-02T01:22:40;55.25;;;25.35;;
37715;SDS011;23562;50.540;12.504;2024-03-02T01:25:05;53.30;;;24.02;;
37715;SDS011;23562;50.540;12.504;2024-03-02T01:27:30;60.15;;;25.65;;
37715;SDS011;23562;50.540;12.504;2024-03-02T01:29:56;55.85;;;23.83;;
37715;SDS011;23562;50.540;12.504;2024-03-02T01:32:21;59.90;;;23.83;;
37715;SDS011;23562;50.540;12.504;2024-03-02T01:34:46;49.70;;;22.58;;
37715;SDS011;23562;50.540;12.504;2024-03-02T01:37:12;49.22;;;22.08;;
37715;SDS011;23562;50.540;12.504;2024-03-02T01:39:37;50.10;;;21.23;;
37715;SDS011;23562;50.540;12.504;2024-03-02T01:42:02;55.83;;;22.70;;
37715;SDS011;23562;50.540;12.504;2024-03-02T01:44:27;49.53;;;21.30;;
37715;SDS011;23562;50.540;12.504;2024-03-02T01:46:52;46.50;;;21.63;;
37715;SDS011;23562;50.540;12.504;2024-03-02T01:49:17;42.03;;;19.90;;
37715;SDS011;23562;50.540;12.504;2024-03-02T01:51:43;54.97;;;22.15;;
37715;SDS011;23562;50.540;12.504;2024-03-02T01:54:09;42.53;;;19.90;;
37715;SDS011;23562;50.540;12.504;2024-03-02T01:56:34;36.28;;;19.90;;
37715;SDS011;23562;50.540;12.504;2024-03-02T01:58:59;40.10;;;19.10;;
37715;SDS011;23562;50.540;12.504;2024-03-02T02:01:24;38.65;;;18.65;;
37715;SDS011;23562;50.540;12.504;2024-03-02T02:03:49;42.10;;;19.65;;
37715;SDS011;23562;50.540;12.504;2024-03-02T02:06:14;37.35;;;17.63;;
37715;SDS011;23562;50.540;12.504;2024-03-02T02:08:39;39.83;;;18.43;;
37715;SDS011;23562;50.540;12.504;2024-03-02T02:11:04;34.47;;;16.97;;
37715;SDS011;23562;50.540;12.504;2024-03-02T02:13:30;36.28;;;16.55;;
37715;SDS011;23562;50.540;12.504;2024-03-02T02:15:55;35.50;;;18.27;;
37715;SDS011;23562;50.540;12.504;2024-03-02T02:18:20;40.90;;;17.33;;
37715;SDS011;23562;50.540;12.504;2024-03-02T02:20:45;36.72;;;17.38;;
37715;SDS011;23562;50.540;12.504;2024-03-02T02:23:10;40.75;;;18.60;;
37715;SDS011;23562;50.540;12.504;2024-03-02T02:25:35;41.38;;;19.95;;
37715;SDS011;23562;50.540;12.504;2024-03-02T02:28:00;36.90;;;18.33;;
37715;SDS011;23562;50.540;12.504;2024-03-02T02:30:28;35.88;;;17.67;;
37715;SDS011;23562;50.540;12.504;2024-03-02T02:32:53;44.10;;;18.83;;
37715;SDS011;23562;50.540;12.504;2024-03-02T02:35:18;51.63;;;19.87;;
37715;SDS011;23562;50.540;12.504;2024-03-02T02:37:44;43.65;;;18.33;;
37715;SDS011;23562;50.540;12.504;2024-03-02T02:40:10;43.58;;;18.92;;
37715;SDS011;23562;50.540;12.504;2024-03-02T02:42:35;44.80;;;20.48;;
37715;SDS011;23562;50.540;12.504;2024-03-02T02:45:01;45.25;;;20.23;;
37715;SDS011;23562;50.540;12.504;2024-03-02T02:47:26;46.13;;;20.08;;
37715;SDS011;23562;50.540;12.504;2024-03-02T02:49:51;44.37;;;20.30;;
37715;SDS011;23562;50.540;12.504;2024-03-02T02:52:16;46.60;;;21.10;;
37715;SDS011;23562;50.540;12.504;2024-03-02T02:54:41;45.43;;;20.63;;
37715;SDS011;23562;50.540;12.504;2024-03-02T02:57:06;45.22;;;20.92;;
37715;SDS011;23562;50.540;12.504;2024-03-02T02:59:31;48.92;;;22.65;;
37715;SDS011;23562;50.540;12.504;2024-03-02T03:01:56;49.88;;;22.20;;
37715;SDS011;23562;50.540;12.504;2024-03-02T03:04:22;47.83;;;20.58;;
37715;SDS011;23562;50.540;12.504;2024-03-02T03:06:47;49.95;;;21.10;;
37715;SDS011;23562;50.540;12.504;2024-03-02T03:09:12;46.72;;;20.23;;
37715;SDS011;23562;50.540;12.504;2024-03-02T03:11:37;44.53;;;21.23;;
37715;SDS011;23562;50.540;12.504;2024-03-02T03:14:02;56.75;;;22.73;;
37715;SDS011;23562;50.540;12.504;2024-03-02T03:16:28;49.42;;;21.15;;
37715;SDS011;23562;50.540;12.504;2024-03-02T03:18:53;53.20;;;21.52;;
37715;SDS011;23562;50.540;12.504;2024-03-02T03:21:18;61.53;;;23.67;;
37715;SDS011;23562;50.540;12.504;2024-03-02T03:23:43;44.28;;;20.70;;
37715;SDS011;23562;50.540;12.504;2024-03-02T03:26:08;52.83;;;23.30;;
37715;SDS011;23562;50.540;12.504;2024-03-02T03:28:34;53.05;;;23.67;;
37715;SDS011;23562;50.540;12.504;2024-03-02T03:30:59;54.20;;;23.60;;
37715;SDS011;23562;50.540;12.504;2024-03-02T03:33:24;51.35;;;22.77;;
37715;SDS011;23562;50.540;12.504;2024-03-02T03:35:49;54.88;;;21.77;;
37715;SDS011;23562;50.540;12.504;2024-03-02T03:38:14;52.90;;;23.17;;
37715;SDS011;23562;50.540;12.504;2024-03-02T03:40:39;59.33;;;25.13;;
37715;SDS011;23562;50.540;12.504;2024-03-02T03:43:04;53.35;;;23.30;;
37715;SDS011;23562;50.540;12.504;2024-03-02T03:45:29;53.37;;;22.47;;
37715;SDS011;23562;50.540;12.504;2024-03-02T03:47:55;54.33;;;23.17;;
37715;SDS011;23562;50.540;12.504;2024-03-02T03:50:20;53.55;;;23.90;;
37715;SDS011;23562;50.540;12.504;2024-03-02T03:52:46;54.00;;;24.38;;
37715;SDS011;23562;50.540;12.504;2024-03-02T03:55:11;54.92;;;25.45;;
37715;SDS011;23562;50.540;12.504;2024-03-02T03:57:36;54.65;;;24.67;;
37715;SDS011;23562;50.540;12.504;2024-03-02T04:00:01;58.22;;;25.48;;
37715;SDS011;23562;50.540;12.504;2024-03-02T04:02:26;54.97;;;24.70;;
37715;SDS011;23562;50.540;12.504;2024-03-02T04:04:51;58.03;;;25.48;;
37715;SDS011;23562;50.540;12.504;2024-03-02T04:07:16;54.38;;;23.13;;
37715;SDS011;23562;50.540;12.504;2024-03-02T04:09:41;51.58;;;23.90;;
37715;SDS011;23562;50.540;12.504;2024-03-02T04:12:06;60.58;;;24.60;;
37715;SDS011;23562;50.540;12.504;2024-03-02T04:14:32;49.67;;;23.48;;
37715;SDS011;23562;50.540;12.504;2024-03-02T04:16:57;57.07;;;23.67;;
37715;SDS011;23562;50.540;12.504;2024-03-02T04:19:22;53.30;;;23.73;;
37715;SDS011;23562;50.540;12.504;2024-03-02T04:21:47;55.08;;;23.42;;
37715;SDS011;23562;50.540;12.504;2024-03-02T04:24:12;52.97;;;22.85;;
37715;SDS011;23562;50.540;12.504;2024-03-02T04:26:37;52.78;;;23.90;;
37715;SDS011;23562;50.540;12.504;2024-03-02T04:29:02;46.38;;;23.20;;
37715;SDS011;23562;50.540;12.504;2024-03-02T04:31:28;51.00;;;23.15;;
37715;SDS011;23562;50.540;12.504;2024-03-02T04:33:53;50.58;;;22.67;;
37715;SDS011;23562;50.540;12.504;2024-03-02T04:36:19;49.65;;;21.95;;
37715;SDS011;23562;50.540;12.504;2024-03-02T04:38:44;53.43;;;24.20;;
37715;SDS011;23562;50.540;12.504;2024-03-02T04:41:09;51.92;;;23.92;;
37715;SDS011;23562;50.540;12.504;2024-03-02T04:43:34;66.83;;;32.77;;
37715;SDS011;23562;50.540;12.504;2024-03-02T04:46:00;67.00;;;32.87;;
37715;SDS011;23562;50.540;12.504;2024-03-02T04:48:25;63.22;;;31.42;;
37715;SDS011;23562;50.540;12.504;2024-03-02T04:50:50;60.70;;;30.03;;
37715;SDS011;23562;50.540;12.504;2024-03-02T04:53:15;62.15;;;31.83;;
37715;SDS011;23562;50.540;12.504;2024-03-02T04:55:41;60.10;;;30.87;;
37715;SDS011;23562;50.540;12.504;2024-03-02T04:58:06;48.83;;;24.50;;
37715;SDS011;23562;50.540;12.504;2024-03-02T05:00:31;52.92;;;26.30;;
37715;SDS011;23562;50.540;12.504;2024-03-02T05:02:56;57.03;;;26.93;;
37715;SDS011;23562;50.540;12.504;2024-03-02T05:05:22;50.30;;;25.90;;
37715;SDS011;23562;50.540;12.504;2024-03-02T05:07:47;47.65;;;24.13;;
37715;SDS011;23562;50.540;12.504;2024-03-02T05:10:12;47.27;;;23.00;;
37715;SDS011;23562;50.540;12.504;2024-03-02T05:12:37;43.83;;;23.23;;
37715;SDS011;23562;50.540;12.504;2024-03-02T05:15:09;48.85;;;22.77;;
37715;SDS011;23562;50.540;12.504;2024-03-02T05:17:35;46.38;;;21.85;;
37715;SDS011;23562;50.540;12.504;2024-03-02T05:20:00;45.63;;;20.83;;
37715;SDS011;23562;50.540;12.504;2024-03-02T05:22:25;43.20;;;20.80;;
37715;SDS011;23562;50.540;12.504;2024-03-02T05:24:50;42.17;;;20.38;;
37715;SDS011;23562;50.540;12.504;2024-03-02T05:27:15;45.35;;;20.40;;
37715;SDS011;23562;50.540;12.504;2024-03-02T05:29:40;42.50;;;20.85;;
37715;SDS011;23562;50.540;12.504;2024-03-02T05:32:05;44.38;;;20.73;;
37715;SDS011;23562;50.540;12.504;2024-03-02T05:34:31;45.30;;;21.55;;
37715;SDS011;23562;50.540;12.504;2024-03-02T05:36:57;39.83;;;20.67;;
37715;SDS011;23562;50.540;12.504;2024-03-02T05:39:23;42.53;;;19.92;;
37715;SDS011;23562;50.540;12.504;2024-03-02T05:41:48;44.47;;;20.43;;
37715;SDS011;23562;50.540;12.504;2024-03-02T05:44:13;40.25;;;20.27;;
37715;SDS011;23562;50.540;12.504;2024-03-02T05:46:40;45.28;;;20.75;;
37715;SDS011;23562;50.540;12.504;2024-03-02T05:49:05;44.40;;;20.20;;
37715;SDS011;23562;50.540;12.504;2024-03-02T05:51:34;44.17;;;21.05;;
37715;SDS011;23562;50.540;12.504;2024-03-02T05:53:59;43.72;;;19.95;;
37715;SDS011;23562;50.540;12.504;2024-03-02T05:56:24;36.45;;;19.80;;
37715;SDS011;23562;50.540;12.504;2024-03-02T05:58:50;35.97;;;18.25;;
37715;SDS011;23562;50.540;12.504;2024-03-02T06:01:37;39.42;;;19.67;;
37715;SDS011;23562;50.540;12.504;2024-03-02T06:04:02;41.63;;;19.58;;
37715;SDS011;23562;50.540;12.504;2024-03-02T06:06:28;37.70;;;18.40;;
37715;SDS011;23562;50.540;12.504;2024-03-02T06:08:53;36.30;;;18.23;;
37715;SDS011;23562;50.540;12.504;2024-03-02T06:11:21;39.63;;;19.63;;
37715;SDS011;23562;50.540;12.504;2024-03-02T06:13:46;34.17;;;16.75;;
37715;SDS011;23562;50.540;12.504;2024-03-02T06:16:11;39.45;;;17.70;;
37715;SDS011;23562;50.540;12.504;2024-03-02T06:18:36;36.40;;;17.37;;
37715;SDS011;23562;50.540;12.504;2024-03-02T06:21:02;36.55;;;16.67;;
37715;SDS011;23562;50.540;12.504;2024-03-02T06:23:27;33.47;;;16.23;;
37715;SDS011;23562;50.540;12.504;2024-03-02T06:25:53;43.38;;;20.55;;
37715;SDS011;23562;50.540;12.504;2024-03-02T06:28:18;42.15;;;20.13;;
37715;SDS011;23562;50.540;12.504;2024-03-02T06:30:43;32.63;;;17.23;;
37715;SDS011;23562;50.540;12.504;2024-03-02T06:33:08;35.28;;;16.23;;
37715;SDS011;23562;50.540;12.504;2024-03-02T06:35:34;44.70;;;20.85;;
37715;SDS011;23562;50.540;12.504;2024-03-02T06:38:00;50.20;;;22.40;;
37715;SDS011;23562;50.540;12.504;2024-03-02T06:40:25;54.67;;;25.67;;
37715;SDS011;23562;50.540;12.504;2024-03-02T06:42:50;43.33;;;22.25;;
37715;SDS011;23562;50.540;12.504;2024-03-02T06:45:15;46.08;;;21.92;;
37715;SDS011;23562;50.540;12.504;2024-03-02T06:47:40;41.08;;;19.83;;
37715;SDS011;23562;50.540;12.504;2024-03-02T06:50:05;43.63;;;21.83;;
37715;SDS011;23562;50.540;12.504;2024-03-02T06:52:32;51.50;;;28.80;;
37715;SDS011;23562;50.540;12.504;2024-03-02T06:54:57;51.17;;;28.70;;
37715;SDS011;23562;50.540;12.504;2024-03-02T06:57:22;43.80;;;22.27;;
37715;SDS011;23562;50.540;12.504;2024-03-02T06:59:49;37.45;;;20.55;;
37715;SDS011;23562;50.540;12.504;2024-03-02T07:02:16;32.83;;;18.50;;
37715;SDS011;23562;50.540;12.504;2024-03-02T07:04:41;31.48;;;16.90;;
37715;SDS011;23562;50.540;12.504;2024-03-02T07:07:06;29.05;;;15.82;;
37715;SDS011;23562;50.540;12.504;2024-03-02T07:09:32;33.97;;;17.70;;
37715;SDS011;23562;50.540;12.504;2024-03-02T07:11:57;28.98;;;14.63;;
37715;SDS011;23562;50.540;12.504;2024-03-02T07:14:22;28.58;;;15.07;;
37715;SDS011;23562;50.540;12.504;2024-03-02T07:17:07;25.45;;;13.43;;
37715;SDS011;23562;50.540;12.504;2024-03-02T07:19:32;27.85;;;15.20;;
37715;SDS011;23562;50.540;12.504;2024-03-02T07:21:57;30.13;;;13.85;;
37715;SDS011;23562;50.540;12.504;2024-03-02T07:24:22;24.42;;;13.15;;
37715;SDS011;23562;50.540;12.504;2024-03-02T07:26:47;24.65;;;13.77;;
37715;SDS011;23562;50.540;12.504;2024-03-02T07:29:13;24.60;;;13.40;;
37715;SDS011;23562;50.540;12.504;2024-03-02T07:31:38;20.52;;;11.20;;
37715;SDS011;23562;50.540;12.504;2024-03-02T07:34:03;23.02;;;11.10;;
37715;SDS011;23562;50.540;12.504;2024-03-02T07:36:28;23.58;;;11.98;;
37715;SDS011;23562;50.540;12.504;2024-03-02T07:38:53;21.83;;;11.27;;
37715;SDS011;23562;50.540;12.504;2024-03-02T07:41:19;22.45;;;11.60;;
37715;SDS011;23562;50.540;12.504;2024-03-02T07:43:44;22.13;;;12.00;;
37715;SDS011;23562;50.540;12.504;2024-03-02T07:46:09;24.00;;;11.57;;
37715;SDS011;23562;50.540;12.504;2024-03-02T07:48:35;76.50;;;35.60;;
37715;SDS011;23562;50.540;12.504;2024-03-02T07:51:00;42.60;;;20.60;;
37715;SDS011;23562;50.540;12.504;2024-03-02T07:53:27;50.92;;;27.95;;
37715;SDS011;23562;50.540;12.504;2024-03-02T07:55:52;50.17;;;26.50;;
37715;SDS011;23562;50.540;12.504;2024-03-02T07:58:17;30.45;;;16.05;;
37715;SDS011;23562;50.540;12.504;2024-03-02T08:00:44;26.23;;;14.48;;
37715;SDS011;23562;50.540;12.504;2024-03-02T08:03:09;23.70;;;13.90;;
37715;SDS011;23562;50.540;12.504;2024-03-02T08:05:36;22.73;;;11.75;;
37715;SDS011;23562;50.540;12.504;2024-03-02T08:08:01;24.67;;;13.02;;
37715;SDS011;23562;50.540;12.504;2024-03-02T08:10:26;20.75;;;11.52;;
37715;SDS011;23562;50.540;12.504;2024-03-02T08:12:51;20.58;;;11.93;;
37715;SDS011;23562;50.540;12.504;2024-03-02T08:15:16;19.83;;;10.43;;
37715;SDS011;23562;50.540;12.504;2024-03-02T08:17:41;23.10;;;12.48;;
37715;SDS011;23562;50.540;12.504;2024-03-02T08:20:10;20.98;;;11.65;;
37715;SDS011;23562;50.540;12.504;2024-03-02T08:22:35;24.85;;;12.77;;
37715;SDS011;23562;50.540;12.504;2024-03-02T08:25:01;21.93;;;10.90;;
37715;SDS011;23562;50.540;12.504;2024-03-02T08:27:27;19.48;;;10.55;;
37715;SDS011;23562;50.540;12.504;2024-03-02T08:29:52;18.00;;;10.90;;
37715;SDS011;23562;50.540;12.504;2024-03-02T08:32:17;17.48;;;10.85;;
37715;SDS011;23562;50.540;12.504;2024-03-02T08:34:42;19.73;;;10.23;;
37715;SDS011;23562;50.540;12.504;2024-03-02T08:37:07;18.25;;;9.63;;
37715;SDS011;23562;50.540;12.504;2024-03-02T08:39:32;19.02;;;10.18;;
37715;SDS011;23562;50.540;12.504;2024-03-02T08:41:58;21.75;;;10.70;;
37715;SDS011;23562;50.540;12.504;2024-03-02T08:44:23;16.38;;;9.55;;
37715;SDS011;23562;50.540;12.504;2024-03-02T08:46:49;16.27;;;9.48;;
37715;SDS011;23562;50.540;12.504;2024-03-02T08:49:14;17.08;;;9.75;;
37715;SDS011;23562;50.540;12.504;2024-03-02T08:51:39;15.60;;;9.33;;
37715;SDS011;23562;50.540;12.504;2024-03-02T08:54:04;17.98;;;8.77;;
37715;SDS011;23562;50.540;12.504;2024-03-02T08:56:30;12.45;;;7.15;;
37715;SDS011;23562;50.540;12.504;2024-03-02T08:58:55;13.73;;;7.63;;
37715;SDS011;23562;50.540;12.504;2024-03-02T09:01:20;11.80;;;7.70;;
37715;SDS011;23562;50.540;12.504;2024-03-02T09:03:46;21.07;;;11.10;;
37715;SDS011;23562;50.540;12.504;2024-03-02T09:06:11;34.97;;;17.55;;
37715;SDS011;23562;50.540;12.504;2024-03-02T09:08:37;34.65;;;18.38;;
37715;SDS011;23562;50.540;12.504;2024-03-02T09:11:03;15.02;;;8.77;;
37715;SDS011;23562;50.540;12.504;2024-03-02T09:13:29;12.60;;;7.38;;
37715;SDS011;23562;50.540;12.504;2024-03-02T09:15:54;13.30;;;7.47;;
37715;SDS011;23562;50.540;12.504;2024-03-02T09:18:19;15.88;;;8.90;;
37715;SDS011;23562;50.540;12.504;2024-03-02T09:20:44;15.73;;;9.07;;
37715;SDS011;23562;50.540;12.504;2024-03-02T09:23:10;15.27;;;9.18;;
37715;SDS011;23562;50.540;12.504;2024-03-02T09:25:36;13.35;;;7.53;;
37715;SDS011;23562;50.540;12.504;2024-03-02T09:28:02;12.52;;;7.18;;
37715;SDS011;23562;50.540;12.504;2024-03-02T09:30:27;13.88;;;7.93;;
37715;SDS011;23562;50.540;12.504;2024-03-02T09:32:53;14.90;;;7.95;;
37715;SDS011;23562;50.540;12.504;2024-03-02T09:35:18;14.02;;;8.50;;
37715;SDS011;23562;50.540;12.504;2024-03-02T09:37:43;17.77;;;9.03;;
37715;SDS011;23562;50.540;12.504;2024-03-02T09:40:08;16.67;;;9.10;;
37715;SDS011;23562;50.540;12.504;2024-03-02T09:42:34;15.93;;;8.38;;
37715;SDS011;23562;50.540;12.504;2024-03-02T09:44:59;16.13;;;9.07;;
37715;SDS011;23562;50.540;12.504;2024-03-02T09:47:24;13.93;;;8.20;;
37715;SDS011;23562;50.540;12.504;2024-03-02T09:49:49;14.23;;;8.27;;
37715;SDS011;23562;50.540;12.504;2024-03-02T09:52:15;13.37;;;7.87;;
37715;SDS011;23562;50.540;12.504;2024-03-02T09:54:41;14.43;;;8.30;;
37715;SDS011;23562;50.540;12.504;2024-03-02T09:57:06;13.05;;;7.38;;
37715;SDS011;23562;50.540;12.504;2024-03-02T09:59:31;18.30;;;10.53;;
37715;SDS011;23562;50.540;12.504;2024-03-02T10:01:57;18.38;;;11.23;;
37715;SDS011;23562;50.540;12.504;2024-03-02T10:04:24;18.20;;;11.48;;
37715;SDS011;23562;50.540;12.504;2024-03-02T10:06:50;20.98;;;10.70;;
37715;SDS011;23562;50.540;12.504;2024-03-02T10:09:26;21.35;;;10.63;;
37715;SDS011;23562;50.540;12.504;2024-03-02T10:11:51;22.88;;;11.63;;
37715;SDS011;23562;50.540;12.504;2024-03-02T10:14:16;19.63;;;10.60;;
37715;SDS011;23562;50.540;12.504;2024-03-02T10:16:43;17.27;;;10.13;;
37715;SDS011;23562;50.540;12.504;2024-03-02T10:19:18;17.80;;;10.57;;
37715;SDS011;23562;50.540;12.504;2024-03-02T10:21:44;16.67;;;9.57;;
37715;SDS011;23562;50.540;12.504;2024-03-02T10:24:09;18.13;;;9.32;;
37715;SDS011;23562;50.540;12.504;2024-03-02T10:26:34;19.93;;;10.43;;
37715;SDS011;23562;50.540;12.504;2024-03-02T10:29:00;25.90;;;13.95;;
37715;SDS011;23562;50.540;12.504;2024-03-02T10:31:25;20.03;;;11.50;;
37715;SDS011;23562;50.540;12.504;2024-03-02T10:33:52;29.98;;;16.08;;
37715;SDS011;23562;50.540;12.504;2024-03-02T10:36:18;52.25;;;26.33;;
37715;SDS011;23562;50.540;12.504;2024-03-02T10:38:44;25.17;;;12.95;;
37715;SDS011;23562;50.540;12.504;2024-03-02T10:41:09;50.42;;;26.80;;
37715;SDS011;23562;50.540;12.504;2024-03-02T10:43:34;15.07;;;8.00;;
37715;SDS011;23562;50.540;12.504;2024-03-02T10:45:59;11.70;;;6.30;;
37715;SDS011;23562;50.540;12.504;2024-03-02T10:48:25;12.68;;;8.07;;
37715;SDS011;23562;50.540;12.504;2024-03-02T10:50:50;12.48;;;7.82;;
37715;SDS011;23562;50.540;12.504;2024-03-02T10:53:16;13.23;;;8.50;;
37715;SDS011;23562;50.540;12.504;2024-03-02T10:55:41;16.07;;;9.67;;
37715;SDS011;23562;50.540;12.504;2024-03-02T10:58:06;11.50;;;6.23;;
37715;SDS011;23562;50.540;12.504;2024-03-02T11:00:32;11.27;;;6.07;;
37715;SDS011;23562;50.540;12.504;2024-03-02T11:03:02;12.07;;;6.38;;
37715;SDS011;23562;50.540;12.504;2024-03-02T11:05:35;12.70;;;7.88;;
37715;SDS011;23562;50.540;12.504;2024-03-02T11:08:02;13.07;;;8.15;;
37715;SDS011;23562;50.540;12.504;2024-03-02T11:10:29;12.52;;;7.70;;
37715;SDS011;23562;50.540;12.504;2024-03-02T11:12:58;12.57;;;6.65;;
37715;SDS011;23562;50.540;12.504;2024-03-02T11:15:25;11.20;;;5.63;;
37715;SDS011;23562;50.540;12.504;2024-03-02T11:17:51;8.27;;;5.32;;
37715;SDS011;23562;50.540;12.504;2024-03-02T11:20:17;9.90;;;5.40;;
37715;SDS011;23562;50.540;12.504;2024-03-02T11:22:43;9.25;;;4.60;;
37715;SDS011;23562;50.540;12.504;2024-03-02T11:25:22;8.43;;;4.85;;
37715;SDS011;23562;50.540;12.504;2024-03-02T11:32:57;6.32;;;4.10;;
37715;SDS011;23562;50.540;12.504;2024-03-02T11:35:26;8.95;;;4.88;;
37715;SDS011;23562;50.540;12.504;2024-03-02T11:37:51;10.98;;;5.72;;
37715;SDS011;23562;50.540;12.504;2024-03-02T11:40:21;10.63;;;4.70;;
37715;SDS011;23562;50.540;12.504;2024-03-02T11:42:46;9.60;;;5.75;;
37715;SDS011;23562;50.540;12.504;2024-03-02T11:45:11;12.48;;;7.25;;
37715;SDS011;23562;50.540;12.504;2024-03-02T11:47:36;12.90;;;6.77;;
37715;SDS011;23562;50.540;12.504;2024-03-02T11:50:02;11.82;;;6.63;;
37715;SDS011;23562;50.540;12.504;2024-03-02T11:52:27;12.47;;;7.00;;
37715;SDS011;23562;50.540;12.504;2024-03-02T11:54:53;13.82;;;6.40;;
37715;SDS011;23562;50.540;12.504;2024-03-02T11:57:19;9.23;;;5.50;;
37715;SDS011;23562;50.540;12.504;2024-03-02T11:59:44;8.45;;;4.75;;
37715;SDS011;23562;50.540;12.504;2024-03-02T12:02:16;6.63;;;4.22;;
37715;SDS011;23562;50.540;12.504;2024-03-02T12:04:42;7.80;;;4.63;;
37715;SDS011;23562;50.540;12.504;2024-03-02T12:07:08;10.13;;;4.68;;
37715;SDS011;23562;50.540;12.504;2024-03-02T12:09:33;10.38;;;4.60;;
37715;SDS011;23562;50.540;12.504;2024-03-02T12:12:05;9.13;;;5.20;;
37715;SDS011;23562;50.540;12.504;2024-03-02T12:14:31;12.90;;;6.35;;
37715;SDS011;23562;50.540;12.504;2024-03-02T12:16:56;8.30;;;5.18;;
37715;SDS011;23562;50.540;12.504;2024-03-02T12:19:23;10.77;;;6.00;;
37715;SDS011;23562;50.540;12.504;2024-03-02T12:21:48;8.73;;;5.65;;
37715;SDS011;23562;50.540;12.504;2024-03-02T12:24:13;8.07;;;4.68;;
37715;SDS011;23562;50.540;12.504;2024-03-02T12:26:39;8.73;;;4.80;;
37715;SDS011;23562;50.540;12.504;2024-03-02T12:29:04;7.70;;;4.53;;
37715;SDS011;23562;50.540;12.504;2024-03-02T12:31:29;9.05;;;4.97;;
37715;SDS011;23562;50.540;12.504;2024-03-02T12:33:55;7.80;;;4.75;;
37715;SDS011;23562;50.540;12.504;2024-03-02T12:36:20;7.77;;;4.13;;
37715;SDS011;23562;50.540;12.504;2024-03-02T12:38:45;7.53;;;4.50;;
37715;SDS011;23562;50.540;12.504;2024-03-02T12:41:14;12.52;;;6.10;;
37715;SDS011;23562;50.540;12.504;2024-03-02T12:43:39;9.68;;;5.40;;
37715;SDS011;23562;50.540;12.504;2024-03-02T12:46:04;9.07;;;5.22;;
37715;SDS011;23562;50.540;12.504;2024-03-02T12:48:29;7.53;;;4.33;;
37715;SDS011;23562;50.540;12.504;2024-03-02T12:50:54;9.27;;;4.30;;
37715;SDS011;23562;50.540;12.504;2024-03-02T12:53:19;4.97;;;3.28;;
37715;SDS011;23562;50.540;12.504;2024-03-02T12:55:46;7.88;;;2.97;;
37715;SDS011;23562;50.540;12.504;2024-03-02T12:58:21;9.10;;;4.10;;
37715;SDS011;23562;50.540;12.504;2024-03-02T13:00:46;8.23;;;4.90;;
37715;SDS011;23562;50.540;12.504;2024-03-02T13:03:12;16.00;;;7.30;;
37715;SDS011;23562;50.540;12.504;2024-03-02T13:05:38;11.32;;;5.40;;
37715;SDS011;23562;50.540;12.504;2024-03-02T13:08:03;7.38;;;4.50;;
37715;SDS011;23562;50.540;12.504;2024-03-02T13:10:29;7.85;;;4.93;;
37715;SDS011;23562;50.540;12.504;2024-03-02T13:12:55;12.45;;;5.80;;
37715;SDS011;23562;50.540;12.504;2024-03-02T13:15:21;12.85;;;5.40;;
37715;SDS011;23562;50.540;12.504;2024-03-02T13:17:46;7.72;;;4.85;;
37715;SDS011;23562;50.540;12.504;2024-03-02T13:20:11;7.03;;;3.87;;
37715;SDS011;23562;50.540;12.504;2024-03-02T13:22:36;11.40;;;6.10;;
37715;SDS011;23562;50.540;12.504;2024-03-02T13:25:01;7.25;;;4.55;;
37715;SDS011;23562;50.540;12.504;2024-03-02T13:27:28;6.60;;;4.75;;
37715;SDS011;23562;50.540;12.504;2024-03-02T13:29:54;5.43;;;4.15;;
37715;SDS011;23562;50.540;12.504;2024-03-02T13:32:19;6.90;;;5.20;;
37715;SDS011;23562;50.540;12.504;2024-03-02T13:34:48;10.00;;;5.20;;
37715;SDS011;23562;50.540;12.504;2024-03-02T13:37:13;9.18;;;6.10;;
37715;SDS011;23562;50.540;12.504;2024-03-02T13:39:38;11.75;;;6.45;;
37715;SDS011;23562;50.540;12.504;2024-03-02T13:42:10;9.00;;;5.80;;
37715;SDS011;23562;50.540;12.504;2024-03-02T13:44:40;7.88;;;5.05;;
37715;SDS011;23562;50.540;12.504;2024-03-02T13:47:05;9.93;;;6.15;;
37715;SDS011;23562;50.540;12.504;2024-03-02T13:49:30;8.20;;;5.57;;
37715;SDS011;23562;50.540;12.504;2024-03-02T13:52:00;7.07;;;5.28;;
37715;SDS011;23562;50.540;12.504;2024-03-02T13:54:27;8.60;;;5.78;;
37715;SDS011;23562;50.540;12.504;2024-03-02T13:56:53;7.97;;;5.10;;
37715;SDS011;23562;50.540;12.504;2024-03-02T13:59:18;7.60;;;4.93;;
37715;SDS011;23562;50.540;12.504;2024-03-02T14:01:44;9.00;;;5.33;;
37715;SDS011;23562;50.540;12.504;2024-03-02T14:04:09;8.23;;;5.50;;
37715;SDS011;23562;50.540;12.504;2024-03-02T14:06:34;7.10;;;4.97;;
37715;SDS011;23562;50.540;12.504;2024-03-02T14:08:59;10.63;;;5.85;;
37715;SDS011;23562;50.540;12.504;2024-03-02T14:11:24;7.88;;;5.28;;
37715;SDS011;23562;50.540;12.504;2024-03-02T14:13:50;6.93;;;5.13;;
37715;SDS011;23562;50.540;12.504;2024-03-02T14:16:19;7.88;;;5.82;;